Time;durP1;ratioP1;P1;durP2;ratioP2;P2;SDS_P1;SDS_P2;PMS_P1;PMS_P2;Temp;Humidity;BMP_temperature;BMP_pressure;BME280_temperature;BME280_humidity;BME280_pressure;Samples;Min_cycle;Max_cycle;Signal;HPM_P1;HPM_P2
2023/08/02 00:00:34;;;;;;;0.88;0.70;;;24.80;51.80;;;;;;5077005;28;20042;-67
2023/08/02 00:03:00;;;;;;;0.70;0.70;;;24.80;51.80;;;;;;5076293;28;20109;-68
2023/08/02 00:05:25;;;;;;;0.88;0.73;;;24.80;51.80;;;;;;5077728;28;20116;-68
2023/08/02 00:07:51;;;;;;;0.60;0.60;;;24.80;51.80;;;;;;5077411;28;20074;-67
2023/08/02 00:10:17;;;;;;;1.20;0.80;;;24.80;51.80;;;;;;5078128;28;20403;-68
2023/08/02 00:12:43;;;;;;;0.60;0.60;;;24.80;51.80;;;;;;5076202;28;20047;-68
2023/08/02 00:15:09;;;;;;;1.10;0.80;;;24.80;51.80;;;;;;5077964;28;20056;-69
2023/08/02 00:17:34;;;;;;;1.25;0.70;;;24.80;51.80;;;;;;5076907;28;20113;-68
2023/08/02 00:20:00;;;;;;;0.75;0.65;;;24.80;51.80;;;;;;5078228;28;20032;-67
2023/08/02 00:22:26;;;;;;;0.88;0.70;;;24.80;51.80;;;;;;5079137;28;20029;-67
2023/08/02 00:24:51;;;;;;;0.80;0.70;;;24.80;51.80;;;;;;5078908;28;20025;-68
2023/08/02 00:27:17;;;;;;;0.80;0.70;;;24.80;51.80;;;;;;5078793;28;20831;-68
2023/08/02 00:29:42;;;;;;;1.00;0.70;;;24.80;51.80;;;;;;5077796;28;20020;-69
2023/08/02 00:32:08;;;;;;;0.60;0.60;;;24.80;51.80;;;;;;5080119;28;20475;-68
2023/08/02 00:34:34;;;;;;;0.68;0.57;;;24.80;51.80;;;;;;5076973;28;20032;-68
2023/08/02 00:37:01;;;;;;;0.80;0.70;;;24.70;51.80;;;;;;5079648;28;20028;-68
2023/08/02 00:39:27;;;;;;;0.90;0.70;;;24.80;51.80;;;;;;5076799;28;20025;-67
2023/08/02 00:41:52;;;;;;;0.70;0.70;;;24.70;51.80;;;;;;5078502;28;20028;-68
2023/08/02 00:44:18;;;;;;;1.00;0.70;;;24.70;51.80;;;;;;5077537;28;20020;-68
2023/08/02 00:46:44;;;;;;;1.00;0.70;;;24.70;51.80;;;;;;5077771;28;20021;-68
2023/08/02 00:49:10;;;;;;;1.08;0.80;;;24.80;51.80;;;;;;5078079;28;20077;-68
2023/08/02 00:51:36;;;;;;;0.77;0.60;;;24.70;51.70;;;;;;5078823;28;20024;-68
2023/08/02 00:54:02;;;;;;;1.27;0.70;;;24.80;51.80;;;;;;5078841;28;20785;-68
2023/08/02 00:56:32;;;;;;;0.82;0.70;;;24.70;51.70;;;;;;5078697;28;20514;-68
2023/08/02 00:58:57;;;;;;;;;;;24.70;52.30;;;;;;5076280;28;20029;-68
2023/08/02 01:01:24;;;;;;;0.63;0.63;;;24.70;51.80;;;;;;5080277;28;19969;-68
2023/08/02 01:03:50;;;;;;;1.08;0.80;;;24.70;51.70;;;;;;5079636;28;20040;-68
2023/08/02 01:06:32;;;;;;;1.02;0.70;;;24.70;51.70;;;;;;5082514;28;20032;-68
2023/08/02 01:09:06;;;;;;;0.63;0.60;;;24.70;51.80;;;;;;5080739;28;20028;-69
2023/08/02 01:11:39;;;;;;;0.60;0.60;;;24.70;51.70;;;;;;5081735;28;20447;-69
2023/08/02 01:14:06;;;;;;;0.52;0.52;;;24.70;51.80;;;;;;5081659;28;20062;-68
2023/08/02 01:16:35;;;;;;;0.65;0.50;;;24.70;51.80;;;;;;5082360;28;20043;-68
2023/08/02 01:19:00;;;;;;;1.20;0.60;;;24.70;51.80;;;;;;5079834;28;20035;-67
2023/08/02 01:21:26;;;;;;;0.65;0.60;;;24.70;51.70;;;;;;5082045;28;20028;-67
2023/08/02 01:23:52;;;;;;;0.63;0.63;;;24.70;51.70;;;;;;5081056;28;20024;-68
2023/08/02 01:26:20;;;;;;;0.80;0.65;;;24.70;51.70;;;;;;5082530;28;20025;-67
2023/08/02 01:28:48;;;;;;;0.50;0.50;;;24.70;51.70;;;;;;5080651;28;20034;-68
2023/08/02 01:31:15;;;;;;;0.60;0.60;;;24.70;51.80;;;;;;5080772;28;20025;-68
2023/08/02 01:33:49;;;;;;;0.77;0.60;;;24.60;51.70;;;;;;5079024;28;20024;-67
2023/08/02 01:36:14;;;;;;;0.60;0.60;;;24.70;51.70;;;;;;5082538;28;20093;-68
2023/08/02 01:38:40;;;;;;;0.63;0.63;;;24.60;51.70;;;;;;5080207;28;20033;-67
2023/08/02 01:41:06;;;;;;;0.60;0.60;;;24.60;51.70;;;;;;5079580;28;20052;-69
2023/08/02 01:43:31;;;;;;;0.88;0.77;;;24.60;51.70;;;;;;5063125;28;20123;-68
2023/08/02 01:45:57;;;;;;;0.52;0.52;;;24.60;51.70;;;;;;5064483;28;20043;-69
2023/08/02 01:48:23;;;;;;;0.77;0.70;;;24.60;51.70;;;;;;5079360;28;20507;-68
2023/08/02 01:50:49;;;;;;;0.60;0.60;;;24.60;51.70;;;;;;5068544;28;20037;-69
2023/08/02 01:53:14;;;;;;;1.08;0.60;;;24.60;51.70;;;;;;5080497;28;20072;-67
2023/08/02 01:55:40;;;;;;;1.00;0.70;;;24.60;51.70;;;;;;5065230;28;20552;-68
2023/08/02 01:58:05;;;;;;;0.60;0.60;;;24.60;51.70;;;;;;5082073;28;20028;-68
2023/08/02 02:00:31;;;;;;;1.00;0.60;;;24.60;51.70;;;;;;5081140;28;20472;-68
2023/08/02 02:02:57;;;;;;;1.00;0.65;;;24.60;51.70;;;;;;5080754;28;20032;-68
2023/08/02 02:05:23;;;;;;;0.70;0.70;;;24.60;51.70;;;;;;5078805;28;20051;-66
2023/08/02 02:07:49;;;;;;;1.00;0.70;;;24.60;51.70;;;;;;5081930;28;20059;-69
2023/08/02 02:10:15;;;;;;;0.75;0.60;;;24.60;51.70;;;;;;5080241;28;20029;-68
2023/08/02 02:12:40;;;;;;;0.80;0.70;;;24.60;52.20;;;;;;5082397;28;20544;-68
2023/08/02 02:15:06;;;;;;;0.57;0.50;;;24.60;51.70;;;;;;5080275;28;20039;-67
2023/08/02 02:17:32;;;;;;;0.85;0.68;;;24.60;51.70;;;;;;5080106;28;20024;-69
2023/08/02 02:19:58;;;;;;;0.70;0.63;;;24.60;51.70;;;;;;5078647;28;20074;-67
2023/08/02 02:22:23;;;;;;;0.60;0.60;;;24.60;51.70;;;;;;5082544;28;20069;-68
2023/08/02 02:24:49;;;;;;;0.55;0.50;;;24.60;51.70;;;;;;5065728;28;20020;-68
2023/08/02 02:27:14;;;;;;;0.88;0.60;;;24.60;51.70;;;;;;5064197;28;20570;-68
2023/08/02 02:29:40;;;;;;;0.88;0.77;;;24.60;51.70;;;;;;5080803;28;20118;-69
2023/08/02 02:32:06;;;;;;;0.50;0.50;;;24.60;51.70;;;;;;5078601;28;20502;-68
2023/08/02 02:34:34;;;;;;;1.02;0.80;;;24.60;51.70;;;;;;5079112;28;20503;-68
2023/08/02 02:37:00;;;;;;;0.70;0.70;;;24.50;51.60;;;;;;5078904;28;20127;-69
2023/08/02 02:39:26;;;;;;;1.15;0.70;;;24.60;51.70;;;;;;5080143;28;20111;-69
2023/08/02 02:41:52;;;;;;;0.60;0.60;;;24.60;51.70;;;;;;5077851;28;20025;-68
2023/08/02 02:44:17;;;;;;;0.70;0.70;;;24.50;51.60;;;;;;5078214;28;20058;-69
2023/08/02 02:46:43;;;;;;;0.70;0.63;;;24.50;51.60;;;;;;5078978;28;20028;-69
2023/08/02 02:49:09;;;;;;;1.38;0.60;;;24.50;51.60;;;;;;5076015;28;20484;-67
2023/08/02 02:51:34;;;;;;;0.70;0.65;;;24.50;51.60;;;;;;5080436;28;20102;-69
2023/08/02 02:54:00;;;;;;;0.65;0.60;;;24.50;51.60;;;;;;5079858;28;20043;-67
2023/08/02 02:56:25;;;;;;;0.55;0.50;;;24.50;51.60;;;;;;5078242;28;20527;-67
2023/08/02 02:58:51;;;;;;;0.88;0.60;;;24.50;51.60;;;;;;5079243;28;20029;-69
2023/08/02 03:01:16;;;;;;;0.98;0.70;;;24.50;51.60;;;;;;5079941;28;20028;-69
2023/08/02 03:03:42;;;;;;;0.63;0.60;;;24.50;51.60;;;;;;5075415;28;20385;-70
2023/08/02 03:06:08;;;;;;;0.50;0.50;;;24.50;51.60;;;;;;5079688;28;20089;-66
2023/08/02 03:08:33;;;;;;;1.25;0.80;;;24.50;51.60;;;;;;5079924;28;20089;-70
2023/08/02 03:10:59;;;;;;;0.70;0.70;;;24.50;51.60;;;;;;5079926;28;20496;-68
2023/08/02 03:13:24;;;;;;;0.50;0.50;;;24.50;51.60;;;;;;5078220;28;20080;-69
2023/08/02 03:15:50;;;;;;;0.60;0.60;;;24.50;51.60;;;;;;5079297;28;20946;-67
2023/08/02 03:18:16;;;;;;;0.50;0.50;;;24.50;52.10;;;;;;5078121;28;20032;-67
2023/08/02 03:20:42;;;;;;;0.43;0.43;;;24.50;51.60;;;;;;5079814;28;20028;-67
2023/08/02 03:23:09;;;;;;;0.60;0.60;;;24.50;51.60;;;;;;5079351;28;20112;-68
2023/08/02 03:25:35;;;;;;;0.80;0.60;;;24.50;51.60;;;;;;5078788;28;20016;-67
2023/08/02 03:28:01;;;;;;;0.85;0.80;;;24.50;51.60;;;;;;5078893;28;20467;-67
2023/08/02 03:30:26;;;;;;;0.50;0.50;;;24.50;51.60;;;;;;5078142;28;20035;-68
2023/08/02 03:32:52;;;;;;;0.90;0.60;;;24.50;51.60;;;;;;5078852;28;20114;-68
2023/08/02 03:35:18;;;;;;;0.77;0.60;;;24.50;51.60;;;;;;5077511;28;20037;-67
2023/08/02 03:37:43;;;;;;;0.80;0.60;;;24.50;51.60;;;;;;5077015;28;20479;-67
2023/08/02 03:40:09;;;;;;;0.50;0.50;;;24.50;51.60;;;;;;5079020;28;20073;-68
2023/08/02 03:42:35;;;;;;;0.60;0.60;;;24.50;51.60;;;;;;5079089;28;20788;-66
2023/08/02 03:45:02;;;;;;;0.57;0.57;;;24.50;51.60;;;;;;5080037;28;20042;-63
2023/08/02 03:47:28;;;;;;;0.60;0.60;;;24.40;51.60;;;;;;5078270;28;20156;-63
2023/08/02 03:49:53;;;;;;;0.60;0.60;;;24.40;51.60;;;;;;5077480;28;20073;-65
2023/08/02 03:52:19;;;;;;;0.70;0.70;;;24.40;51.60;;;;;;5078699;28;20029;-64
2023/08/02 03:54:45;;;;;;;0.75;0.60;;;24.40;51.60;;;;;;5077925;28;20632;-67
2023/08/02 03:57:10;;;;;;;0.73;0.60;;;24.40;51.60;;;;;;5080210;28;20017;-67
2023/08/02 03:59:36;;;;;;;0.80;0.60;;;24.40;51.60;;;;;;5079152;28;20028;-68
2023/08/02 04:02:02;;;;;;;0.80;0.70;;;24.40;51.60;;;;;;5081314;28;20094;-68
2023/08/02 04:04:27;;;;;;;0.70;0.70;;;24.40;51.50;;;;;;5075181;28;20021;-69
2023/08/02 04:06:53;;;;;;;0.75;0.70;;;24.40;51.50;;;;;;5078261;28;20032;-68
2023/08/02 04:09:18;;;;;;;0.70;0.70;;;24.40;51.50;;;;;;5077166;28;20874;-67
2023/08/02 04:11:44;;;;;;;0.75;0.60;;;24.40;51.40;;;;;;5078614;28;20028;-69
2023/08/02 04:14:10;;;;;;;0.93;0.70;;;24.40;51.40;;;;;;5078635;28;20116;-69
2023/08/02 04:16:35;;;;;;;0.80;0.70;;;24.40;51.40;;;;;;5078635;28;20036;-67
2023/08/02 04:19:01;;;;;;;0.70;0.63;;;24.40;51.40;;;;;;5078564;28;20111;-69
2023/08/02 04:21:27;;;;;;;0.85;0.63;;;24.40;51.40;;;;;;5076913;28;20374;-69
2023/08/02 04:23:52;;;;;;;1.10;0.70;;;24.40;51.40;;;;;;5078310;28;20379;-69
2023/08/02 04:26:18;;;;;;;0.65;0.60;;;24.40;51.40;;;;;;5080492;28;20028;-69
2023/08/02 04:28:45;;;;;;;0.60;0.60;;;24.40;51.40;;;;;;5079092;28;20126;-69
2023/08/02 04:31:11;;;;;;;0.55;0.50;;;24.30;51.90;;;;;;5076984;28;20024;-68
2023/08/02 04:33:37;;;;;;;0.63;0.60;;;24.30;51.40;;;;;;5060370;28;20028;-62
2023/08/02 04:36:03;;;;;;;0.60;0.60;;;24.40;51.40;;;;;;5078345;28;20487;-63
2023/08/02 04:38:29;;;;;;;0.65;0.63;;;24.30;51.30;;;;;;5063285;28;20469;-64
2023/08/02 04:40:57;;;;;;;0.65;0.60;;;24.30;51.30;;;;;;5084571;28;20016;-63
2023/08/02 04:43:22;;;;;;;0.68;0.63;;;24.30;51.30;;;;;;5084201;28;20055;-61
2023/08/02 04:45:48;;;;;;;0.80;0.60;;;24.30;51.30;;;;;;5081104;28;20024;-63
2023/08/02 04:48:13;;;;;;;0.75;0.75;;;24.30;51.30;;;;;;5067891;28;20028;-63
2023/08/02 04:50:39;;;;;;;0.70;0.70;;;24.30;51.30;;;;;;5081925;28;20433;-63
2023/08/02 04:53:05;;;;;;;0.60;0.60;;;24.30;51.30;;;;;;5080423;28;20036;-67
2023/08/02 04:55:39;;;;;;;0.50;0.50;;;24.30;51.30;;;;;;5083281;28;20043;-67
2023/08/02 04:58:05;;;;;;;0.50;0.50;;;24.30;51.30;;;;;;5082843;28;20035;-67
2023/08/02 05:00:30;;;;;;;0.70;0.63;;;24.30;51.30;;;;;;5081552;28;20567;-68
2023/08/02 05:02:56;;;;;;;0.77;0.60;;;24.30;51.30;;;;;;5082035;28;20025;-68
2023/08/02 05:05:24;;;;;;;0.50;0.50;;;24.30;51.30;;;;;;5082067;28;20033;-67
2023/08/02 05:07:49;;;;;;;0.63;0.60;;;24.30;51.30;;;;;;5080989;28;20487;-67
2023/08/02 05:10:17;;;;;;;0.68;0.55;;;24.30;51.30;;;;;;5080960;28;20032;-68
2023/08/02 05:12:43;;;;;;;0.60;0.60;;;24.30;51.30;;;;;;5081983;28;20129;-67
2023/08/02 05:15:09;;;;;;;0.65;0.60;;;24.30;51.30;;;;;;5082676;28;20122;-67
2023/08/02 05:17:35;;;;;;;0.80;0.70;;;24.30;51.30;;;;;;5081662;28;20028;-67
2023/08/02 05:20:00;;;;;;;0.80;0.70;;;24.30;51.30;;;;;;5079725;28;20020;-67
2023/08/02 05:22:26;;;;;;;0.70;0.70;;;24.30;51.30;;;;;;5081765;28;20360;-68
2023/08/02 05:24:52;;;;;;;0.63;0.63;;;24.30;51.30;;;;;;5082281;28;20028;-67
2023/08/02 05:27:18;;;;;;;0.75;0.50;;;24.30;51.30;;;;;;5081867;28;20032;-67
2023/08/02 05:29:44;;;;;;;0.50;0.50;;;24.30;51.40;;;;;;5064871;28;20491;-67
2023/08/02 05:32:10;;;;;;;0.80;0.70;;;24.30;51.40;;;;;;5080443;28;20039;-67
2023/08/02 05:34:36;;;;;;;0.75;0.70;;;24.30;51.30;;;;;;5081040;28;20137;-67
2023/08/02 05:37:01;;;;;;;1.10;0.68;;;24.30;51.30;;;;;;5078232;28;20475;-68
2023/08/02 05:39:27;;;;;;;0.60;0.60;;;24.20;51.30;;;;;;5069602;28;20044;-67
2023/08/02 05:41:53;;;;;;;0.50;0.50;;;24.30;51.40;;;;;;5081749;28;20020;-67
2023/08/02 05:44:18;;;;;;;0.50;0.50;;;24.20;51.30;;;;;;5081539;28;20023;-67
2023/08/02 05:46:44;;;;;;;0.55;0.55;;;24.20;51.30;;;;;;5080584;28;20384;-67
2023/08/02 05:49:10;;;;;;;0.90;0.70;;;24.20;51.30;;;;;;5079050;28;20086;-67
2023/08/02 05:51:35;;;;;;;0.80;0.68;;;24.20;51.30;;;;;;5078999;28;20050;-67
2023/08/02 05:54:01;;;;;;;0.65;0.60;;;24.20;51.30;;;;;;5080212;28;20040;-67
2023/08/02 05:56:26;;;;;;;0.60;0.60;;;24.20;51.30;;;;;;5080935;28;20040;-68
2023/08/02 05:58:52;;;;;;;0.60;0.60;;;24.20;51.30;;;;;;5079670;28;20921;-68
2023/08/02 06:01:18;;;;;;;1.02;0.50;;;24.20;51.30;;;;;;5080506;28;20021;-68
2023/08/02 06:03:43;;;;;;;0.60;0.60;;;24.20;51.40;;;;;;5079790;28;20025;-67
2023/08/02 06:06:09;;;;;;;0.60;0.60;;;24.20;51.40;;;;;;5079833;28;20031;-67
2023/08/02 06:08:36;;;;;;;0.60;0.60;;;24.20;51.40;;;;;;5079784;28;20090;-67
2023/08/02 06:11:02;;;;;;;0.88;0.70;;;24.20;51.30;;;;;;5082098;28;20052;-70
2023/08/02 06:13:29;;;;;;;0.70;0.60;;;24.20;51.30;;;;;;5082264;28;20134;-67
2023/08/02 06:15:54;;;;;;;0.63;0.60;;;24.20;51.30;;;;;;5079843;28;20023;-68
2023/08/02 06:18:20;;;;;;;0.70;0.60;;;24.20;51.30;;;;;;5062679;28;20499;-68
2023/08/02 06:20:45;;;;;;;0.77;0.60;;;24.20;51.40;;;;;;5079945;28;20031;-68
2023/08/02 06:23:11;;;;;;;0.60;0.60;;;24.20;51.30;;;;;;5079415;28;20021;-68
2023/08/02 06:25:37;;;;;;;0.57;0.57;;;24.20;51.40;;;;;;5079312;28;20029;-68
2023/08/02 06:28:02;;;;;;;0.50;0.50;;;24.20;51.40;;;;;;5080865;28;20047;-68
2023/08/02 06:30:28;;;;;;;0.60;0.60;;;24.20;51.40;;;;;;5081643;28;20050;-68
2023/08/02 06:32:54;;;;;;;0.80;0.80;;;24.20;51.40;;;;;;5070474;28;20390;-69
2023/08/02 06:35:20;;;;;;;0.93;0.65;;;24.20;51.40;;;;;;5077873;28;20051;-68
2023/08/02 06:37:45;;;;;;;1.00;0.80;;;24.20;51.40;;;;;;5068706;28;20039;-68
2023/08/02 06:40:11;;;;;;;0.80;0.70;;;24.20;51.40;;;;;;5080875;28;20020;-67
2023/08/02 06:42:37;;;;;;;0.88;0.70;;;24.20;51.40;;;;;;5079712;28;20506;-68
2023/08/02 06:45:03;;;;;;;0.80;0.70;;;24.20;51.90;;;;;;5081708;28;20020;-68
2023/08/02 06:47:28;;;;;;;1.02;0.73;;;24.10;51.40;;;;;;5082614;28;20039;-68
2023/08/02 06:49:54;;;;;;;0.52;0.50;;;24.20;51.40;;;;;;5079617;28;20384;-68
2023/08/02 06:52:20;;;;;;;0.80;0.63;;;24.10;51.30;;;;;;5081178;28;20073;-68
2023/08/02 06:54:45;;;;;;;0.80;0.80;;;24.10;51.40;;;;;;5080226;28;20543;-69
2023/08/02 06:57:11;;;;;;;0.70;0.70;;;24.10;51.40;;;;;;5078089;28;20491;-68
2023/08/02 06:59:36;;;;;;;0.82;0.60;;;24.10;51.40;;;;;;5081390;28;20023;-68
2023/08/02 07:02:02;;;;;;;0.73;0.70;;;24.20;51.40;;;;;;5078519;28;20047;-68
2023/08/02 07:04:28;;;;;;;0.73;0.70;;;24.10;51.40;;;;;;5061454;28;20514;-68
2023/08/02 07:06:53;;;;;;;0.60;0.60;;;24.10;51.40;;;;;;5078820;28;20043;-68
2023/08/02 07:09:19;;;;;;;0.60;0.60;;;24.10;51.40;;;;;;5078387;28;20035;-67
2023/08/02 07:11:45;;;;;;;1.15;0.85;;;24.10;51.40;;;;;;5080911;28;20030;-68
2023/08/02 07:14:10;;;;;;;0.70;0.70;;;24.20;51.40;;;;;;5078841;28;20102;-68
2023/08/02 07:16:36;;;;;;;0.60;0.60;;;24.10;51.40;;;;;;5079770;28;20438;-68
2023/08/02 07:19:02;;;;;;;0.88;0.70;;;24.10;51.40;;;;;;5078278;28;20048;-68
2023/08/02 07:21:31;;;;;;;0.70;0.70;;;24.10;51.40;;;;;;5077469;28;20035;-68
2023/08/02 07:23:57;;;;;;;0.90;0.63;;;24.10;51.90;;;;;;5080787;28;20022;-66
2023/08/02 07:26:23;;;;;;;1.02;0.80;;;24.10;51.40;;;;;;5061250;28;20135;-67
2023/08/02 07:28:48;;;;;;;0.80;0.70;;;24.10;51.40;;;;;;5080382;28;20074;-67
2023/08/02 07:31:14;;;;;;;1.00;0.70;;;24.10;51.40;;;;;;5081055;28;20036;-67
2023/08/02 07:33:40;;;;;;;1.20;0.80;;;24.10;51.40;;;;;;5077293;28;20059;-67
2023/08/02 07:36:18;;;;;;;0.80;0.70;;;24.10;51.40;;;;;;5077280;28;20507;-66
2023/08/02 07:38:44;;;;;;;1.23;0.70;;;24.10;51.40;;;;;;5081827;28;20064;-67
2023/08/02 07:41:09;;;;;;;0.70;0.70;;;24.10;51.40;;;;;;5079219;28;20070;-67
2023/08/02 07:43:35;;;;;;;0.73;0.70;;;24.10;51.50;;;;;;5079475;28;20024;-67
2023/08/02 07:46:01;;;;;;;0.80;0.60;;;24.10;51.40;;;;;;5074965;28;20089;-67
2023/08/02 07:48:26;;;;;;;0.60;0.60;;;24.10;51.50;;;;;;5075400;28;20025;-67
2023/08/02 07:50:52;;;;;;;0.95;0.60;;;24.10;51.50;;;;;;5079074;28;20037;-66
2023/08/02 07:53:17;;;;;;;0.70;0.70;;;24.10;51.50;;;;;;5079923;28;20077;-66
2023/08/02 07:55:43;;;;;;;0.75;0.60;;;24.10;51.50;;;;;;5077541;28;20043;-66
2023/08/02 07:58:09;;;;;;;1.00;0.80;;;24.10;52.00;;;;;;5064566;28;20056;-67
2023/08/02 08:00:34;;;;;;;0.75;0.70;;;24.10;51.50;;;;;;5078359;28;20480;-67
2023/08/02 08:03:03;;;;;;;0.98;0.80;;;24.10;51.50;;;;;;5079019;28;20023;-67
2023/08/02 08:05:29;;;;;;;1.05;0.73;;;24.10;51.50;;;;;;5079212;28;20557;-67
2023/08/02 08:07:55;;;;;;;0.90;0.70;;;24.10;51.50;;;;;;5078507;28;20040;-67
2023/08/02 08:10:21;;;;;;;1.67;0.85;;;24.10;51.60;;;;;;5079423;28;20050;-68
2023/08/02 08:12:46;;;;;;;0.88;0.68;;;24.10;51.60;;;;;;5079761;28;20044;-67
2023/08/02 08:15:12;;;;;;;0.70;0.70;;;24.10;51.60;;;;;;5078336;28;20064;-67
2023/08/02 08:17:37;;;;;;;0.80;0.60;;;24.10;51.70;;;;;;5078223;28;20031;-67
2023/08/02 08:20:05;;;;;;;0.73;0.50;;;24.10;51.80;;;;;;5079039;28;20024;-67
2023/08/02 08:22:31;;;;;;;0.85;0.70;;;24.10;51.80;;;;;;5076068;28;20024;-67
2023/08/02 08:24:56;;;;;;;0.57;0.57;;;24.10;51.80;;;;;;5078366;28;20020;-63
2023/08/02 08:27:22;;;;;;;0.95;0.70;;;24.10;51.80;;;;;;5063032;28;20051;-64
2023/08/02 08:29:48;;;;;;;0.80;0.60;;;24.10;51.70;;;;;;5078797;28;20453;-64
2023/08/02 08:32:13;;;;;;;0.82;0.70;;;24.10;51.80;;;;;;5079799;28;20063;-63
2023/08/02 08:34:39;;;;;;;0.70;0.65;;;24.10;51.70;;;;;;5078861;28;20077;-66
2023/08/02 08:37:05;;;;;;;0.60;0.60;;;24.10;51.70;;;;;;5076790;28;20356;-66
2023/08/02 08:39:30;;;;;;;0.70;0.70;;;24.10;51.70;;;;;;5077193;28;20021;-66
2023/08/02 08:41:59;;;;;;;0.60;0.50;;;24.10;51.70;;;;;;5077697;28;20028;-66
2023/08/02 08:44:25;;;;;;;0.93;0.68;;;24.10;51.70;;;;;;5078657;28;20028;-67
2023/08/02 08:46:52;;;;;;;0.70;0.60;;;24.10;51.70;;;;;;5079533;28;20025;-66
2023/08/02 08:49:17;;;;;;;0.77;0.70;;;24.10;51.70;;;;;;5078873;28;20031;-67
2023/08/02 08:51:52;;;;;;;0.70;0.70;;;24.10;51.60;;;;;;5076998;28;20032;-66
2023/08/02 08:54:23;;;;;;;0.57;0.55;;;24.10;51.60;;;;;;5078622;28;20032;-66
2023/08/02 08:56:49;;;;;;;0.68;0.50;;;24.10;51.60;;;;;;5078726;28;20024;-67
2023/08/02 08:59:15;;;;;;;0.65;0.60;;;24.10;51.60;;;;;;5078510;28;20020;-67
2023/08/02 09:01:43;;;;;;;0.60;0.60;;;24.10;51.60;;;;;;5079054;28;20745;-67
2023/08/02 09:04:08;;;;;;;0.75;0.65;;;24.10;51.60;;;;;;5077126;28;20502;-67
2023/08/02 09:06:35;;;;;;;0.70;0.60;;;24.10;51.60;;;;;;5076340;28;20029;-67
2023/08/02 09:09:02;;;;;;;0.60;0.60;;;24.10;51.60;;;;;;5077667;28;20387;-67
2023/08/02 09:11:29;;;;;;;1.10;0.80;;;24.10;51.70;;;;;;5077651;28;20024;-66
2023/08/02 09:14:14;;;;;;;1.00;0.70;;;24.10;52.20;;;;;;5078377;28;20553;-64
2023/08/02 09:17:00;;;;;;;0.63;0.63;;;24.10;51.70;;;;;;5076372;28;20033;-64
2023/08/02 09:19:28;;;;;;;1.02;0.70;;;24.10;51.80;;;;;;5078541;28;20487;-64
2023/08/02 09:22:08;;;;;;;1.17;0.70;;;24.10;51.80;;;;;;5077913;28;20695;-63
2023/08/02 09:24:40;;;;;;;0.82;0.68;;;24.10;51.80;;;;;;5077896;28;20031;-64
2023/08/02 09:27:11;;;;;;;0.93;0.63;;;24.10;51.80;;;;;;5081273;28;20031;-64
2023/08/02 09:29:46;;;;;;;1.15;0.80;;;24.10;51.80;;;;;;5081209;28;20119;-65
2023/08/02 09:32:12;;;;;;;0.80;0.65;;;24.10;51.80;;;;;;5082392;28;20077;-63
2023/08/02 09:34:49;;;;;;;0.73;0.60;;;24.10;51.80;;;;;;5079377;28;20032;-68
2023/08/02 09:37:16;;;;;;;0.95;0.70;;;24.10;51.80;;;;;;5067948;28;20032;-68
2023/08/02 09:39:51;;;;;;;0.80;0.70;;;24.10;51.80;;;;;;5082211;28;20082;-68
2023/08/02 09:42:21;;;;;;;1.13;0.70;;;24.10;51.80;;;;;;5081975;28;20059;-68
2023/08/02 09:45:08;;;;;;;0.75;0.70;;;24.10;51.70;;;;;;5081748;28;20031;-67
2023/08/02 09:47:34;;;;;;;0.80;0.70;;;24.10;51.80;;;;;;5082149;28;20059;-66
2023/08/02 09:50:10;;;;;;;0.57;0.50;;;24.10;51.80;;;;;;5081753;28;20117;-66
2023/08/02 09:52:40;;;;;;;0.68;0.68;;;24.10;51.70;;;;;;5080291;28;20025;-66
2023/08/02 09:55:09;;;;;;;;;;;24.10;51.70;;;;;;5080883;28;20093;-66
2023/08/02 09:57:35;;;;;;;1.48;0.75;;;24.10;51.70;;;;;;5079479;28;19908;-67
2023/08/02 10:00:06;;;;;;;0.73;0.60;;;24.10;51.70;;;;;;5079777;28;20429;-67
2023/08/02 10:02:35;;;;;;;1.52;0.63;;;24.10;51.70;;;;;;5080893;28;20111;-67
2023/08/02 10:05:02;;;;;;;0.70;0.68;;;24.10;51.70;;;;;;5080225;28;20024;-67
2023/08/02 10:07:47;;;;;;;0.60;0.60;;;24.10;51.70;;;;;;5078872;28;20028;-68
2023/08/02 10:10:19;;;;;;;0.65;0.65;;;24.10;51.70;;;;;;5064781;28;20051;-68
2023/08/02 10:13:01;;;;;;;1.20;0.80;;;24.10;51.70;;;;;;5079597;28;20107;-67
2023/08/02 10:15:27;;;;;;;0.50;0.50;;;24.10;51.70;;;;;;5082856;28;20043;-68
2023/08/02 10:17:55;;;;;;;0.95;0.73;;;24.10;51.70;;;;;;5078931;28;20527;-67
2023/08/02 10:20:21;;;;;;;0.82;0.80;;;24.10;51.70;;;;;;5078932;28;20143;-67
2023/08/02 10:22:49;;;;;;;0.70;0.70;;;24.10;51.70;;;;;;5081598;28;20375;-67
2023/08/02 10:25:16;;;;;;;0.70;0.60;;;24.10;51.70;;;;;;5079053;28;20032;-64
2023/08/02 10:27:44;;;;;;;1.13;0.70;;;24.10;51.70;;;;;;5081528;28;20024;-62
2023/08/02 10:30:11;;;;;;;1.05;0.70;;;24.10;51.60;;;;;;5081863;28;20066;-63
2023/08/02 10:32:37;;;;;;;0.70;0.70;;;24.10;51.70;;;;;;5081478;28;20012;-63
2023/08/02 10:35:03;;;;;;;0.80;0.60;;;24.10;51.60;;;;;;5077809;28;20498;-65
2023/08/02 10:37:50;;;;;;;0.70;0.60;;;24.10;51.60;;;;;;5077660;28;20027;-63
2023/08/02 10:40:15;;;;;;;0.60;0.60;;;24.10;51.70;;;;;;5078837;28;20032;-64
2023/08/02 10:43:07;;;;;;;0.68;0.60;;;24.10;51.70;;;;;;5079610;28;20670;-64
2023/08/02 10:45:33;;;;;;;0.70;0.60;;;24.10;51.70;;;;;;5082213;28;20024;-67
2023/08/02 10:48:25;;;;;;;0.90;0.73;;;24.10;51.60;;;;;;5080011;28;20027;-67
2023/08/02 10:50:52;;;;;;;0.68;0.63;;;24.10;51.60;;;;;;5080168;28;20032;-67
2023/08/02 10:53:17;;;;;;;1.30;0.70;;;24.10;51.60;;;;;;5077845;28;20089;-66
2023/08/02 10:56:03;;;;;;;0.98;0.80;;;24.10;51.60;;;;;;5080898;28;20555;-67
2023/08/02 10:58:45;;;;;;;0.70;0.60;;;24.10;51.70;;;;;;5079838;28;20111;-68
2023/08/02 11:01:13;;;;;;;0.60;0.60;;;24.10;51.80;;;;;;5078384;28;20099;-67
2023/08/02 11:03:39;;;;;;;0.80;0.70;;;24.10;51.70;;;;;;5080934;28;20028;-67
2023/08/02 11:06:05;;;;;;;1.08;0.80;;;24.10;51.70;;;;;;5080168;28;20517;-67
2023/08/02 11:08:45;;;;;;;1.05;0.70;;;24.10;51.70;;;;;;5077763;28;20032;-67
2023/08/02 11:11:10;;;;;;;1.08;0.80;;;24.10;51.80;;;;;;5080485;28;20445;-67
2023/08/02 11:13:40;;;;;;;1.17;0.70;;;24.10;51.80;;;;;;5080554;28;20095;-68
2023/08/02 11:16:06;;;;;;;0.68;0.68;;;24.10;51.70;;;;;;5081088;28;20033;-69
2023/08/02 11:18:33;;;;;;;0.70;0.60;;;24.10;51.70;;;;;;5077275;28;20499;-69
2023/08/02 11:21:10;;;;;;;0.68;0.68;;;24.10;51.70;;;;;;5079579;28;20028;-67
2023/08/02 11:23:36;;;;;;;1.40;0.75;;;24.10;51.70;;;;;;5077319;28;20091;-69
2023/08/02 11:26:12;;;;;;;0.80;0.70;;;24.10;51.70;;;;;;5080853;28;20165;-67
2023/08/02 11:28:49;;;;;;;0.70;0.60;;;24.10;51.80;;;;;;5078285;28;20024;-67
2023/08/02 11:31:15;;;;;;;1.08;0.73;;;24.10;51.70;;;;;;5060441;28;20029;-67
2023/08/02 11:33:42;;;;;;;0.80;0.70;;;24.10;51.70;;;;;;5080008;28;20036;-64
2023/08/02 11:36:08;;;;;;;1.30;0.80;;;24.10;51.80;;;;;;5080023;28;20387;-64
2023/08/02 11:38:36;;;;;;;0.98;0.88;;;24.10;51.80;;;;;;5078488;28;20507;-63
2023/08/02 11:41:01;;;;;;;0.80;0.70;;;24.10;51.80;;;;;;5078710;28;20357;-64
2023/08/02 11:43:37;;;;;;;0.93;0.77;;;24.10;51.80;;;;;;5077086;28;20149;-66
2023/08/02 11:46:25;;;;;;;0.90;0.70;;;24.10;51.80;;;;;;5079428;28;20475;-66
2023/08/02 11:48:52;;;;;;;1.00;0.70;;;24.10;52.20;;;;;;5080287;28;20032;-65
2023/08/02 11:51:20;;;;;;;1.35;0.85;;;24.10;52.20;;;;;;5076501;28;20024;-66
2023/08/02 11:53:47;;;;;;;1.30;0.90;;;24.10;52.60;;;;;;5078571;28;20032;-69
2023/08/02 11:56:12;;;;;;;1.05;0.90;;;24.10;52.80;;;;;;5079002;28;20513;-69
2023/08/02 11:58:38;;;;;;;0.95;0.75;;;24.10;53.00;;;;;;5080011;28;20047;-69
2023/08/02 12:01:04;;;;;;;1.13;0.90;;;24.10;53.50;;;;;;5077978;28;20020;-69
2023/08/02 12:03:30;;;;;;;1.63;0.90;;;24.10;53.00;;;;;;5061241;28;20036;-68
2023/08/02 12:06:00;;;;;;;1.48;0.80;;;24.10;53.00;;;;;;5079093;28;20031;-64
2023/08/02 12:08:26;;;;;;;1.48;1.00;;;24.10;53.10;;;;;;5075540;28;20028;-64
2023/08/02 12:10:51;;;;;;;1.35;0.95;;;24.10;53.50;;;;;;5079196;28;20028;-64
2023/08/02 12:13:17;;;;;;;1.00;0.80;;;24.10;53.50;;;;;;5064801;28;20036;-64
2023/08/02 12:16:04;;;;;;;1.30;0.90;;;24.10;53.50;;;;;;5077746;28;20082;-65
2023/08/02 12:18:30;;;;;;;1.83;0.90;;;24.10;53.80;;;;;;5066219;28;20112;-63
2023/08/02 12:20:55;;;;;;;1.80;1.10;;;24.10;53.70;;;;;;5079373;28;20059;-64
2023/08/02 12:23:35;;;;;;;1.40;1.00;;;24.10;53.90;;;;;;5080046;28;20028;-65
2023/08/02 12:26:01;;;;;;;;;;;24.10;53.70;;;;;;5080059;28;20498;-64
2023/08/02 12:28:45;;;;;;;1.67;1.10;;;24.10;53.80;;;;;;5077978;28;20023;-64
2023/08/02 12:31:11;;;;;;;1.95;1.13;;;24.10;54.10;;;;;;5078018;28;20025;-64
2023/08/02 12:33:37;;;;;;;2.10;1.20;;;24.10;53.80;;;;;;5076307;28;20027;-64
2023/08/02 12:36:03;;;;;;;2.05;1.20;;;24.00;54.10;;;;;;5079080;28;20024;-63
2023/08/02 12:38:30;;;;;;;1.52;1.10;;;24.10;54.70;;;;;;5077171;28;20119;-63
2023/08/02 12:40:57;;;;;;;2.05;1.30;;;24.10;55.20;;;;;;5082172;28;20028;-63
2023/08/02 12:43:23;;;;;;;2.22;1.40;;;24.10;55.60;;;;;;5077930;28;20098;-63
2023/08/02 12:45:49;;;;;;;1.90;1.17;;;24.10;54.90;;;;;;5077603;28;20033;-64
2023/08/02 12:48:15;;;;;;;2.13;1.38;;;24.10;55.30;;;;;;5078311;28;20032;-65